Airfield :
LOGIN :

Register | Disclaimer

   EN    FR    IT 

 










Legend :    VFR   Marginal VFR   IFR   Intensive IFR   Very Intensive IFR
Visi :
Ceiling :
>= 8 km
>= 3000ft
5 to 8 km
1000 to 3000 ft
1500m to 5 km
500 to 1000 ft
800 to 1500m
200 to 500 ft
< 800m
< 200 ft
Symbols :   Thunderstorms  Fog  Heavy snow  Heavy precipitations  Wind > 20 kt
SIGMETs :     Misc.  Thunderstorms  Icing  Turbulence  Mountain Waves  Volcanic Ashes






- Airport Elevation : 821 ft
- IATA code : LYS


LFLL - Lyon St Exupéry / Satolas

CURRENT METAR :
  • 162330Z 17007KT CAVOK 21/14 Q1014 NOSIG

EXPIRED METARs :
  • 162300Z 14005KT CAVOK 21/14 Q1014 NOSIG
  • 162230Z 15006KT CAVOK 21/13 Q1014 NOSIG
  • 162200Z 17004KT 140V220 CAVOK 21/13 Q1013 NOSIG
  • 162130Z 17005KT 140V200 CAVOK 21/13 Q1013 NOSIG
  • 162100Z 23003KT CAVOK 22/13 Q1013 NOSIG
  • 162030Z 24003KT 150V250 CAVOK 22/14 Q1013 NOSIG
  • 162000Z 22005KT 120V250 CAVOK 22/14 Q1013 NOSIG
  • 161930Z 23006KT CAVOK 23/14 Q1012 NOSIG

TAF TAF LFLL
Valid from the 17 at 00:00 until the 18 at 06:00 UTC


162300Z 1700/1806 17008KT CAVOK
PROB30
TEMPO 1702/1706 VRB12KT SHRA SCT060TCU
TEMPO 1713/1718 20013KT



MET'MAP, your aeronautical weather chart ! - Copyright ORBIFLY December 2007 - Disclaimer

ORBIFLY MET'MAP TEAM :

Programming & Development : Alexandra Zaïnal
Original concept : Baudouin d'Aumeries
Technical & hardware support : Manuel Goepfert
Assistance : Marc-Olivier Méhu




SOURCES & CREDITS :

   NOAA